createdAt,value
2023-06-29T00:04:42.758Z,9.30
2023-06-29T00:09:46.104Z,4.30
2023-06-29T00:14:48.888Z,5.00
2023-06-29T00:19:51.768Z,5.00
2023-06-29T00:25:00.214Z,5.80
2023-06-29T00:30:03.132Z,6.60
2023-06-29T00:35:06.389Z,6.00
2023-06-29T00:40:10.877Z,6.20
2023-06-29T00:45:14.700Z,4.10
2023-06-29T00:50:18.379Z,5.70
2023-06-29T00:55:21.742Z,5.10
2023-06-29T01:00:25.175Z,5.80
2023-06-29T01:05:34.358Z,6.50
2023-06-29T01:15:42.225Z,8.40
2023-06-29T01:20:50.038Z,6.90
2023-06-29T01:25:56.001Z,7.90
2023-06-29T01:30:59.742Z,8.20
2023-06-29T01:36:12.304Z,7.00
2023-06-29T01:41:18.041Z,8.80
2023-06-29T01:46:22.678Z,7.10
2023-06-29T01:51:25.668Z,6.40
2023-06-29T01:56:28.635Z,8.10
2023-06-29T02:01:31.790Z,7.40
2023-06-29T02:06:34.715Z,7.00
2023-06-29T02:11:37.484Z,9.80
2023-06-29T02:16:40.314Z,7.50
2023-06-29T02:21:43.112Z,8.90
2023-06-29T02:26:45.916Z,7.40
2023-06-29T02:31:49.392Z,6.40
2023-06-29T02:36:52.218Z,6.30
2023-06-29T02:41:54.974Z,9.50
2023-06-29T02:46:57.707Z,8.50
2023-06-29T02:52:00.921Z,9.50
2023-06-29T02:57:04.047Z,6.40
2023-06-29T03:02:07.213Z,8.10
2023-06-29T03:07:10.288Z,6.60
2023-06-29T03:12:13.529Z,7.00
2023-06-29T03:17:16.467Z,10.70
2023-06-29T03:22:19.309Z,8.60
2023-06-29T03:27:22.039Z,8.00
2023-06-29T03:32:24.862Z,7.00
2023-06-29T03:37:27.617Z,9.20
2023-06-29T03:42:30.376Z,8.90
2023-06-29T03:47:33.135Z,8.50
2023-06-29T03:52:35.950Z,11.90
2023-06-29T03:57:38.920Z,9.40
2023-06-29T04:02:41.895Z,8.80
2023-06-29T04:07:45.042Z,9.00
2023-06-29T04:12:47.964Z,6.60
2023-06-29T04:17:51.302Z,9.90
2023-06-29T04:22:54.193Z,11.80
2023-06-29T04:27:57.396Z,8.40
2023-06-29T04:33:10.969Z,9.90
2023-06-29T04:38:14.614Z,8.60
2023-06-29T04:43:17.521Z,7.70
2023-06-29T04:48:20.797Z,9.40
2023-06-29T04:53:23.517Z,9.80
2023-06-29T04:58:26.856Z,8.80
2023-06-29T05:03:29.728Z,9.50
2023-06-29T05:08:32.668Z,8.50
2023-06-29T05:13:37.365Z,9.30
2023-06-29T05:18:40.852Z,7.20
2023-06-29T05:23:44.331Z,7.90
2023-06-29T05:29:00.488Z,6.90
2023-06-29T05:34:08.276Z,8.20
2023-06-29T05:39:11.659Z,10.00
2023-06-29T05:44:14.494Z,8.90
2023-06-29T05:49:18.177Z,8.40
2023-06-29T05:54:20.958Z,7.90
2023-06-29T05:59:24.106Z,7.90
2023-06-29T06:04:27.218Z,9.60
2023-06-29T06:09:30.390Z,6.60
2023-06-29T06:14:33.790Z,5.90
2023-06-29T06:19:36.586Z,6.20
2023-06-29T06:24:39.525Z,6.80
2023-06-29T06:29:42.431Z,5.70
2023-06-29T06:34:47.308Z,5.60
2023-06-29T06:39:50.310Z,5.20
2023-06-29T06:44:54.534Z,5.10
2023-06-29T06:49:57.355Z,6.50
2023-06-29T06:55:00.540Z,4.60
2023-06-29T07:00:04.700Z,5.30
2023-06-29T07:05:08.067Z,4.30
2023-06-29T07:10:11.114Z,5.00
2023-06-29T07:15:13.927Z,5.30
2023-06-29T07:25:22.571Z,4.30
2023-06-29T07:30:25.719Z,5.00
2023-06-29T07:35:28.577Z,3.80
2023-06-29T07:40:31.540Z,4.50
2023-06-29T07:45:34.403Z,4.00
2023-06-29T07:50:37.511Z,5.90
2023-06-29T07:55:40.616Z,3.70
2023-06-29T08:00:43.458Z,4.80
2023-06-29T08:10:52.285Z,4.70
2023-06-29T08:15:55.707Z,6.40
2023-06-29T08:20:58.529Z,3.10
2023-06-29T08:26:01.418Z,3.50
2023-06-29T08:31:06.509Z,3.80
2023-06-29T08:36:10.331Z,3.30
2023-06-29T08:41:15.141Z,5.50
2023-06-29T08:46:18.110Z,5.80
2023-06-29T08:51:23.352Z,5.00
2023-06-29T08:56:26.811Z,3.70
2023-06-29T09:01:31.065Z,5.00
2023-06-29T09:06:34.113Z,3.50
2023-06-29T09:11:37.371Z,5.80
2023-06-29T09:16:54.090Z,4.50
2023-06-29T09:21:58.615Z,3.40
2023-06-29T09:32:06.334Z,3.80
2023-06-29T09:37:14.493Z,5.40
2023-06-29T09:42:17.456Z,5.10
2023-06-29T09:52:46.299Z,4.60
2023-06-29T09:57:51.386Z,4.40
2023-06-29T10:02:55.443Z,4.10
2023-06-29T10:07:59.235Z,5.50
2023-06-29T10:13:06.062Z,6.30
2023-06-29T10:18:13.225Z,4.50
2023-06-29T10:23:18.993Z,3.70
2023-06-29T10:28:23.048Z,4.50
2023-06-29T10:33:25.800Z,5.20
2023-06-29T10:38:33.686Z,4.90
2023-06-29T10:43:59.712Z,3.10
2023-06-29T10:49:02.583Z,3.30
2023-06-29T10:54:05.431Z,3.80
2023-06-29T10:59:09.601Z,4.40
2023-06-29T11:04:13.212Z,3.40
2023-06-29T11:09:16.243Z,3.60
2023-06-29T11:14:20.208Z,5.70
2023-06-29T11:19:28.672Z,3.30
2023-06-29T11:24:31.708Z,4.80
2023-06-29T11:29:34.591Z,5.80
2023-06-29T11:34:37.371Z,4.40
2023-06-29T11:39:40.090Z,2.90
2023-06-29T11:44:42.879Z,4.40
2023-06-29T11:49:50.624Z,3.50
2023-06-29T11:54:54.291Z,2.40
2023-06-29T11:59:57.080Z,3.30
2023-06-29T12:05:03.041Z,5.50
2023-06-29T12:10:11.436Z,1.90
2023-06-29T12:15:22.716Z,3.60
2023-06-29T12:20:26.303Z,3.50
2023-06-29T12:25:29.191Z,2.50
2023-06-29T12:30:31.934Z,3.30
2023-06-29T12:35:34.690Z,3.50
2023-06-29T12:40:39.392Z,2.40
2023-06-29T12:45:42.288Z,2.80
2023-06-29T12:50:45.878Z,4.20
2023-06-29T12:55:49.144Z,2.50
2023-06-29T13:00:53.144Z,3.60
2023-06-29T13:05:56.325Z,3.30
2023-06-29T13:10:59.736Z,3.50
2023-06-29T13:16:02.811Z,4.40
2023-06-29T13:21:05.628Z,3.10
2023-06-29T13:26:08.382Z,3.80
2023-06-29T13:31:11.388Z,2.70
2023-06-29T13:36:14.360Z,3.60
2023-06-29T13:41:19.954Z,2.70
2023-06-29T13:46:22.686Z,3.80
2023-06-29T13:51:25.819Z,3.20
2023-06-29T13:56:30.156Z,3.50
2023-06-29T14:01:33.456Z,4.30
2023-06-29T14:06:39.850Z,5.00
2023-06-29T14:11:42.844Z,3.60
2023-06-29T14:16:46.662Z,3.40
2023-06-29T14:21:49.463Z,3.30
2023-06-29T14:26:54.395Z,4.00
2023-06-29T14:31:57.272Z,3.80
2023-06-29T14:37:00.216Z,4.10
2023-06-29T14:42:03.005Z,8.10
2023-06-29T14:47:06.392Z,4.00
2023-06-29T14:52:09.179Z,4.40
2023-06-29T14:57:12.261Z,4.30
2023-06-29T15:02:15.559Z,10.60
2023-06-29T15:07:18.356Z,5.10
2023-06-29T15:12:22.373Z,5.80
2023-06-29T15:17:26.463Z,3.50
2023-06-29T15:22:29.237Z,5.70
2023-06-29T15:27:32.051Z,3.70
2023-06-29T15:32:34.833Z,4.30
2023-06-29T15:37:37.751Z,3.90
2023-06-29T15:42:40.516Z,3.90
2023-06-29T15:47:43.432Z,5.00
2023-06-29T15:52:46.392Z,8.70
2023-06-29T15:57:49.748Z,3.20
2023-06-29T16:02:52.495Z,3.40
2023-06-29T16:07:58.344Z,4.10
2023-06-29T16:13:01.122Z,4.60
2023-06-29T16:18:04.299Z,5.00
2023-06-29T16:23:07.242Z,5.60
2023-06-29T16:28:10.065Z,4.70
2023-06-29T16:33:12.844Z,3.50
2023-06-29T16:38:15.794Z,4.90
2023-06-29T16:43:18.683Z,3.30
2023-06-29T16:48:21.873Z,3.40
2023-06-29T16:53:24.608Z,5.00
2023-06-29T16:58:28.774Z,3.40
2023-06-29T17:03:32.370Z,3.00
2023-06-29T17:08:35.454Z,4.00
2023-06-29T17:13:38.169Z,3.40
2023-06-29T17:18:40.999Z,4.90
2023-06-29T17:23:43.867Z,2.00
2023-06-29T17:28:46.619Z,5.30
2023-06-29T17:33:55.062Z,2.80
2023-06-29T17:38:58.657Z,5.30
2023-06-29T17:44:01.437Z,4.20
2023-06-29T17:49:04.182Z,4.50
2023-06-29T17:54:06.931Z,3.30
2023-06-29T17:59:09.728Z,6.10
2023-06-29T18:04:13.321Z,3.20
2023-06-29T18:09:16.472Z,2.30
2023-06-29T18:14:19.257Z,4.30
2023-06-29T18:19:22.015Z,4.70
2023-06-29T18:24:24.768Z,4.40
2023-06-29T18:29:30.317Z,6.00
2023-06-29T18:34:33.230Z,3.70
2023-06-29T18:39:35.973Z,4.40
2023-06-29T18:44:39.173Z,3.60
2023-06-29T18:49:52.233Z,5.90
2023-06-29T18:54:57.278Z,3.80
2023-06-29T19:00:00.725Z,4.30
2023-06-29T19:05:04.221Z,4.10
2023-06-29T19:10:07.777Z,4.10
2023-06-29T19:15:11.108Z,7.10
2023-06-29T19:20:13.894Z,4.00
2023-06-29T19:25:16.765Z,5.30
2023-06-29T19:30:19.510Z,4.00
2023-06-29T19:35:22.364Z,5.80
2023-06-29T19:40:25.487Z,8.50
2023-06-29T19:45:28.377Z,6.20
2023-06-29T19:50:31.339Z,5.50
2023-06-29T19:55:35.888Z,6.60
2023-06-29T20:00:38.732Z,6.40
2023-06-29T20:05:42.965Z,8.40
2023-06-29T20:10:48.556Z,8.10
2023-06-29T20:15:51.496Z,5.10
2023-06-29T20:20:54.505Z,6.60
2023-06-29T20:25:57.251Z,6.60
2023-06-29T20:31:00.059Z,3.20
2023-06-29T20:36:03.487Z,6.20
2023-06-29T20:41:06.246Z,4.40
2023-06-29T20:46:09.025Z,6.70
2023-06-29T20:51:16.943Z,5.00
2023-06-29T20:56:20.935Z,5.00
2023-06-29T21:01:25.016Z,5.20
2023-06-29T21:06:28.150Z,8.10
2023-06-29T21:11:32.412Z,7.00
2023-06-29T21:16:35.658Z,6.00
2023-06-29T21:21:38.958Z,6.60
2023-06-29T21:26:41.762Z,6.90
2023-06-29T21:31:45.389Z,6.70
2023-06-29T21:36:48.941Z,7.70
2023-06-29T21:41:51.769Z,6.40
2023-06-29T21:46:54.661Z,5.80
2023-06-29T21:51:57.637Z,5.70
2023-06-29T21:57:00.395Z,6.20
2023-06-29T22:02:03.232Z,7.60
2023-06-29T22:12:14.733Z,4.70
2023-06-29T22:17:17.625Z,7.00
2023-06-29T22:22:20.354Z,7.40
2023-06-29T22:27:23.107Z,9.10
2023-06-29T22:32:26.323Z,6.30
2023-06-29T22:37:29.279Z,7.70
2023-06-29T22:42:32.030Z,5.20
2023-06-29T22:47:34.796Z,9.70
2023-06-29T22:52:37.682Z,8.40
2023-06-29T22:57:40.852Z,10.00
2023-06-29T23:02:43.798Z,6.00
2023-06-29T23:07:47.739Z,5.70
2023-06-29T23:12:50.508Z,5.40
2023-06-29T23:17:54.940Z,7.00
2023-06-29T23:22:58.951Z,5.40
2023-06-29T23:28:04.489Z,6.80
2023-06-29T23:33:09.752Z,7.50
2023-06-29T23:38:12.824Z,7.30
2023-06-29T23:43:15.698Z,7.80
2023-06-29T23:48:18.508Z,5.80
2023-06-29T23:53:21.509Z,7.70
2023-06-29T23:58:24.485Z,8.00
